createdAt,value
2022-10-28T00:00:12.485Z,45.60
2022-10-28T00:12:18.487Z,58.40
2022-10-28T00:18:20.909Z,46.08
2022-10-28T00:24:23.246Z,50.70
2022-10-28T00:30:25.487Z,41.50
2022-10-28T00:36:32.111Z,46.83
2022-10-28T00:42:34.245Z,38.50
2022-10-28T00:48:41.520Z,41.03
2022-10-28T00:54:45.356Z,44.97
2022-10-28T01:00:47.659Z,38.42
2022-10-28T01:06:50.908Z,38.60
2022-10-28T01:13:30.406Z,31.85
2022-10-28T01:19:59.898Z,42.90
2022-10-28T01:26:39.252Z,23.95
2022-10-28T01:33:05.023Z,30.85
2022-10-28T01:39:12.881Z,26.10
2022-10-28T01:45:59.674Z,30.30
2022-10-28T01:52:05.326Z,24.83
2022-10-28T01:58:11.504Z,25.27
2022-10-28T02:04:13.611Z,31.98
2022-10-28T02:10:23.187Z,26.97
2022-10-28T02:16:32.183Z,22.50
2022-10-28T02:22:49.078Z,25.88
2022-10-28T02:29:09.943Z,20.75
2022-10-28T02:35:20.855Z,18.52
2022-10-28T02:41:45.891Z,16.85
2022-10-28T02:47:53.965Z,19.55
2022-10-28T02:54:02.479Z,16.52
2022-10-28T03:00:11.590Z,15.85
2022-10-28T03:06:14.317Z,20.83
2022-10-28T03:18:18.592Z,27.40
2022-10-28T03:24:20.748Z,19.33
2022-10-28T03:30:22.802Z,13.47
2022-10-28T03:36:24.902Z,18.00
2022-10-28T03:42:27.158Z,27.80
2022-10-28T03:48:29.326Z,23.17
2022-10-28T03:54:31.269Z,14.17
2022-10-28T04:00:33.508Z,16.47
2022-10-28T04:06:35.831Z,25.02
2022-10-28T04:12:37.837Z,14.80
2022-10-28T04:18:39.915Z,18.93
2022-10-28T04:24:41.938Z,32.37
2022-10-28T04:30:43.967Z,19.10
2022-10-28T04:36:46.063Z,20.37
2022-10-28T04:42:48.694Z,17.25
2022-10-28T04:48:50.979Z,19.08
2022-10-28T04:54:53.300Z,24.42
2022-10-28T05:00:55.526Z,25.33
2022-10-28T05:06:57.776Z,29.75
2022-10-28T05:12:59.889Z,26.70
2022-10-28T05:19:01.981Z,22.37
2022-10-28T05:25:05.172Z,21.83
2022-10-28T05:31:07.248Z,20.65
2022-10-28T05:37:09.275Z,21.23
2022-10-28T05:43:11.426Z,26.30
2022-10-28T05:49:13.611Z,23.57
2022-10-28T05:55:16.581Z,24.13
2022-10-28T06:01:18.658Z,34.15
2022-10-28T06:07:20.729Z,34.37
2022-10-28T06:13:27.741Z,28.35
2022-10-28T06:19:29.964Z,44.43
2022-10-28T06:25:32.008Z,31.23
2022-10-28T06:31:34.067Z,26.13
2022-10-28T06:37:36.218Z,32.87
2022-10-28T06:43:38.276Z,21.60
2022-10-28T06:49:41.838Z,35.80
2022-10-28T06:55:48.957Z,23.52
2022-10-28T07:01:51.165Z,31.45
2022-10-28T07:07:54.231Z,29.92
2022-10-28T07:13:56.690Z,28.55
2022-10-28T07:19:58.695Z,31.05
2022-10-28T07:26:01.172Z,26.80
2022-10-28T07:32:03.748Z,40.55
2022-10-28T07:44:08.092Z,20.75
2022-10-28T07:50:10.825Z,24.42
2022-10-28T07:56:16.086Z,31.70
2022-10-28T08:02:20.519Z,22.85
2022-10-28T08:08:22.585Z,21.92
2022-10-28T08:14:24.549Z,22.00
2022-10-28T08:20:26.573Z,28.20
2022-10-28T08:26:28.621Z,27.73
2022-10-28T08:32:30.668Z,23.60
2022-10-28T08:38:32.728Z,45.20
2022-10-28T08:45:17.073Z,38.47
2022-10-28T08:51:43.400Z,18.17
2022-10-28T08:57:56.334Z,19.67
2022-10-28T09:10:05.634Z,24.40
2022-10-28T09:16:21.667Z,16.80
2022-10-28T09:22:29.595Z,27.75
2022-10-28T09:29:03.855Z,26.98
2022-10-28T09:35:15.580Z,27.30
2022-10-28T09:41:21.883Z,22.50
2022-10-28T09:47:46.514Z,43.08
2022-10-28T09:53:54.380Z,22.48
2022-10-28T09:59:56.735Z,20.42
2022-10-28T10:06:10.831Z,26.33
2022-10-28T10:12:14.592Z,38.47
2022-10-28T10:18:23.354Z,31.10
2022-10-28T10:24:31.984Z,18.73
2022-10-28T10:30:45.446Z,19.45
2022-10-28T10:36:54.422Z,21.13
2022-10-28T10:43:12.822Z,21.65
2022-10-28T10:49:16.498Z,35.15
2022-10-28T10:55:32.220Z,18.55
2022-10-28T11:01:40.390Z,16.58
2022-10-28T11:07:50.856Z,21.45
2022-10-28T11:14:09.021Z,16.73
2022-10-28T11:20:26.479Z,17.92
2022-10-28T11:26:30.965Z,21.00
2022-10-28T11:32:45.291Z,22.23
2022-10-28T11:39:04.190Z,33.92
2022-10-28T11:45:17.421Z,17.75
2022-10-28T11:51:28.931Z,12.38
2022-10-28T11:58:05.210Z,21.63
2022-10-28T12:04:32.333Z,15.57
2022-10-28T12:10:40.814Z,19.33
2022-10-28T12:17:26.544Z,16.52
2022-10-28T12:23:32.312Z,18.77
2022-10-28T12:29:41.152Z,13.52
2022-10-28T12:35:55.897Z,15.07
2022-10-28T12:42:05.478Z,12.73
2022-10-28T12:48:19.253Z,10.02
2022-10-28T12:54:25.194Z,9.10
2022-10-28T13:00:32.126Z,20.00
2022-10-28T13:07:11.569Z,74.63
2022-10-28T13:13:31.667Z,24.35
2022-10-28T13:19:48.951Z,13.07
2022-10-28T13:25:58.791Z,13.00
2022-10-28T13:32:01.252Z,13.90
2022-10-28T13:44:08.865Z,13.02
2022-10-28T13:50:15.581Z,16.33
2022-10-28T13:56:20.540Z,20.73
2022-10-28T14:02:47.688Z,20.83
2022-10-28T14:08:50.049Z,27.08
2022-10-28T14:15:20.540Z,16.88
2022-10-28T14:22:02.551Z,14.68
2022-10-28T14:28:27.731Z,35.55
2022-10-28T14:34:37.857Z,16.83
2022-10-28T14:40:49.924Z,25.48
2022-10-28T14:47:07.363Z,8.65
2022-10-28T14:53:17.404Z,17.20
2022-10-28T14:59:27.560Z,20.23
2022-10-28T15:05:30.911Z,22.23
2022-10-28T15:11:34.269Z,17.17
2022-10-28T15:17:39.727Z,38.20
2022-10-28T15:23:42.202Z,16.00
2022-10-28T15:29:44.236Z,29.83
2022-10-28T15:35:47.348Z,25.70
2022-10-28T15:41:52.615Z,32.35
2022-10-28T15:47:55.791Z,30.23
2022-10-28T15:54:12.193Z,20.83
2022-10-28T16:00:23.554Z,32.53
2022-10-28T16:06:29.304Z,32.83
2022-10-28T16:12:31.567Z,26.15
2022-10-28T16:18:45.997Z,26.00
2022-10-28T16:24:50.040Z,30.75
2022-10-28T16:30:57.442Z,27.90
2022-10-28T16:36:59.752Z,51.42
2022-10-28T16:43:01.898Z,41.72
2022-10-28T16:49:04.393Z,45.72
2022-10-28T16:55:15.440Z,54.55
2022-10-28T17:01:21.193Z,63.38
2022-10-28T17:07:23.500Z,51.13
2022-10-28T17:13:25.505Z,63.95
2022-10-28T17:19:27.412Z,49.93
2022-10-28T17:25:29.836Z,58.57
2022-10-28T17:31:32.563Z,69.78
2022-10-28T17:43:36.664Z,86.47
2022-10-28T17:49:38.856Z,71.27
2022-10-28T17:55:42.426Z,73.53
2022-10-28T18:01:44.696Z,66.72
2022-10-28T18:07:46.808Z,62.60
2022-10-28T18:13:51.715Z,74.27
2022-10-28T18:19:54.138Z,68.38
2022-10-28T18:25:59.507Z,70.07
2022-10-28T18:32:04.805Z,52.90
2022-10-28T18:38:06.972Z,62.42
2022-10-28T18:44:14.430Z,72.18
2022-10-28T18:50:16.805Z,69.72
2022-10-28T18:56:20.940Z,64.30
2022-10-28T19:02:23.403Z,73.60
2022-10-28T19:14:27.585Z,61.55
2022-10-28T19:20:29.821Z,82.57
2022-10-28T19:26:33.903Z,67.40
2022-10-28T19:32:38.552Z,99.00
2022-10-28T19:38:40.724Z,100.55
2022-10-28T19:44:42.966Z,71.57
2022-10-28T19:50:51.677Z,75.97
2022-10-28T19:56:53.873Z,80.13
2022-10-28T20:02:56.062Z,89.72
2022-10-28T20:08:59.014Z,79.90
2022-10-28T20:15:01.121Z,62.88
2022-10-28T20:21:07.693Z,77.17
2022-10-28T20:27:09.860Z,88.55
2022-10-28T20:33:11.822Z,87.57
2022-10-28T20:39:16.269Z,77.13
2022-10-28T20:45:18.321Z,72.78
2022-10-28T20:51:21.197Z,82.07
2022-10-28T21:03:26.037Z,81.90
2022-10-28T21:09:28.173Z,66.18
2022-10-28T21:15:33.534Z,69.07
2022-10-28T21:21:35.717Z,82.07
2022-10-28T21:27:38.565Z,85.10
2022-10-28T21:33:41.742Z,85.68
2022-10-28T21:39:44.766Z,82.82
2022-10-28T21:45:46.847Z,82.20
2022-10-28T21:51:49.003Z,76.53
2022-10-28T21:57:51.000Z,44.17
2022-10-28T22:03:54.853Z,64.13
2022-10-28T22:09:56.815Z,73.95
2022-10-28T22:16:05.364Z,117.20
2022-10-28T22:22:07.516Z,112.40
2022-10-28T22:28:09.769Z,91.35
2022-10-28T22:34:11.770Z,92.03
2022-10-28T22:40:13.720Z,94.97
2022-10-28T22:46:17.199Z,93.30
2022-10-28T22:52:19.211Z,63.90
2022-10-28T22:58:21.981Z,63.43
2022-10-28T23:04:24.235Z,59.33
2022-10-28T23:10:27.214Z,54.03
2022-10-28T23:16:29.094Z,52.88
2022-10-28T23:22:31.201Z,46.57
2022-10-28T23:28:33.756Z,58.88
2022-10-28T23:34:35.856Z,69.13
2022-10-28T23:40:38.773Z,59.17
2022-10-28T23:46:41.426Z,60.25
2022-10-28T23:52:43.545Z,60.05
2022-10-28T23:58:45.578Z,64.80
